Time;durP1;ratioP1;P1;durP2;ratioP2;P2;SDS_P1;SDS_P2;PMS_P1;PMS_P2;Temp;Humidity;BMP_temperature;BMP_pressure;BME280_temperature;BME280_humidity;BME280_pressure;Samples;Min_cycle;Max_cycle;Signal;HPM_P1;HPM_P2
2022/09/14 00:00:14;;;;;;;8.40;2.35;;;;;;;;;;4927924;29;20051;-88
2022/09/14 00:02:45;;;;;;;13.57;2.22;;;;;;;;;;4931836;29;20050;-88
2022/09/14 00:05:11;;;;;;;6.38;2.40;;;;;;;;;;4918854;29;20039;-89
2022/09/14 00:07:38;;;;;;;12.98;2.50;;;;;;;;;;4933042;29;20054;-89
2022/09/14 00:10:04;;;;;;;9.23;2.30;;;;;;;;;;4932264;29;20028;-88
2022/09/14 00:12:33;;;;;;;8.10;2.10;;;;;;;;;;4931468;28;20049;-88
2022/09/14 00:15:18;;;;;;;8.40;2.40;;;;;;;;;;4932333;29;20036;-88
2022/09/14 00:17:56;;;;;;;8.63;2.27;;;;;;;;;;4933466;28;20463;-89
2022/09/14 00:20:30;;;;;;;7.43;2.40;;;;;;;;;;4922799;29;20050;-88
2022/09/14 00:23:41;;;;;;;;;;;;;;;;;;;;;
2022/09/14 00:26:28;;;;;;;6.20;2.00;;;;;;;;;;4946292;28;20042;-88
2022/09/14 00:28:56;;;;;;;6.18;2.03;;;;;;;;;;4943278;28;20036;-89
2022/09/14 00:31:22;;;;;;;14.30;2.65;;;;;;;;;;4947802;28;20039;-88
2022/09/14 00:33:49;;;;;;;7.78;2.63;;;;;;;;;;4946516;28;20032;-88
2022/09/14 00:36:17;;;;;;;5.57;2.13;;;;;;;;;;4933275;29;20572;-88
2022/09/14 00:38:44;;;;;;;10.85;2.05;;;;;;;;;;4921773;28;20045;-89
2022/09/14 00:41:12;;;;;;;16.45;2.47;;;;;;;;;;4926061;28;20043;-88
2022/09/14 00:44:13;;;;;;;13.45;2.83;;;;;;;;;;4924446;29;20035;-89
2022/09/14 00:46:39;;;;;;;9.43;3.97;;;;;;;;;;4857290;29;20524;-88
2022/09/14 00:49:17;;;;;;;14.75;2.60;;;;;;;;;;4934322;28;20118;-88
2022/09/14 00:51:46;;;;;;;6.95;2.80;;;;;;;;;;4942043;28;20062;-88
2022/09/14 00:54:13;;;;;;;8.80;2.30;;;;;;;;;;4931765;29;20746;-88
2022/09/14 00:56:39;;;;;;;11.98;2.50;;;;;;;;;;4929981;28;20090;-87
2022/09/14 00:59:09;;;;;;;9.90;2.60;;;;;;;;;;4932127;29;20304;-88
2022/09/14 01:01:35;;;;;;;7.13;2.05;;;;;;;;;;4946673;28;20046;-88
2022/09/14 01:04:01;;;;;;;9.60;2.42;;;;;;;;;;4918651;29;20127;-87
2022/09/14 01:06:41;;;;;;;7.53;2.22;;;;;;;;;;4933367;28;20388;-88
2022/09/14 01:09:10;;;;;;;8.68;2.78;;;;;;;;;;4935703;29;20023;-88
2022/09/14 01:11:43;;;;;;;8.10;2.50;;;;;;;;;;4932760;28;20030;-88
2022/09/14 01:14:17;;;;;;;8.25;2.50;;;;;;;;;;4931978;29;20400;-87
2022/09/14 01:17:01;;;;;;;9.25;2.40;;;;;;;;;;4942985;28;20407;-87
2022/09/14 01:19:40;;;;;;;10.35;2.30;;;;;;;;;;4929056;28;20566;-87
2022/09/14 01:22:09;;;;;;;5.32;2.60;;;;;;;;;;4945652;28;20031;-88
2022/09/14 01:24:42;;;;;;;7.60;2.28;;;;;;;;;;4933797;28;20751;-88
2022/09/14 01:27:24;;;;;;;12.65;2.67;;;;;;;;;;4933746;29;20037;-88
2022/09/14 01:29:57;;;;;;;11.15;2.45;;;;;;;;;;4931798;29;20099;-88
2022/09/14 01:32:42;;;;;;;6.80;2.22;;;;;;;;;;4930904;28;20596;-88
2022/09/14 01:35:11;;;;;;;7.63;2.20;;;;;;;;;;4932348;29;20046;-88
2022/09/14 01:37:40;;;;;;;12.55;2.08;;;;;;;;;;4929943;29;20039;-87
2022/09/14 01:40:10;;;;;;;10.88;1.98;;;;;;;;;;4945395;28;20031;-87
2022/09/14 01:42:37;;;;;;;9.45;2.38;;;;;;;;;;4947411;28;20027;-87
2022/09/14 01:45:07;;;;;;;7.13;2.17;;;;;;;;;;4948653;28;20435;-88
2022/09/14 01:47:39;;;;;;;10.98;2.50;;;;;;;;;;4924375;29;20043;-87
2022/09/14 01:50:18;;;;;;;12.07;2.85;;;;;;;;;;4944152;28;20027;-87
2022/09/14 01:53:03;;;;;;;10.38;1.85;;;;;;;;;;4910505;28;20052;-87
2022/09/14 01:55:38;;;;;;;3.83;1.55;;;;;;;;;;4905346;29;20050;-88
2022/09/14 01:58:10;;;;;;;6.03;2.15;;;;;;;;;;4889614;29;20051;-88
2022/09/14 02:00:38;;;;;;;12.32;2.00;;;;;;;;;;4892898;29;20047;-87
2022/09/14 02:03:08;;;;;;;6.88;2.10;;;;;;;;;;4906988;29;20056;-88
2022/09/14 02:05:40;;;;;;;5.30;2.17;;;;;;;;;;4889863;29;20051;-88
2022/09/14 02:08:07;;;;;;;7.80;2.17;;;;;;;;;;4910662;29;20028;-88
2022/09/14 02:10:34;;;;;;;6.50;1.83;;;;;;;;;;4891019;29;20039;-88
2022/09/14 02:13:00;;;;;;;6.32;1.40;;;;;;;;;;4889476;29;20043;-87
2022/09/14 02:15:26;;;;;;;8.30;2.65;;;;;;;;;;4905964;29;20466;-88
2022/09/14 02:17:53;;;;;;;7.93;1.85;;;;;;;;;;4908947;29;20455;-87
2022/09/14 02:20:27;;;;;;;8.73;1.90;;;;;;;;;;4891099;29;20066;-88
2022/09/14 02:22:54;;;;;;;7.47;2.00;;;;;;;;;;4887654;29;20523;-88
2022/09/14 02:25:20;;;;;;;6.18;1.90;;;;;;;;;;4906441;29;20155;-88
2022/09/14 02:27:47;;;;;;;5.65;1.35;;;;;;;;;;4877672;29;20430;-88
2022/09/14 02:30:13;;;;;;;9.32;1.52;;;;;;;;;;4893636;29;20032;-88
2022/09/14 02:32:51;;;;;;;6.65;1.85;;;;;;;;;;4887666;29;20399;-87
2022/09/14 02:35:39;;;;;;;5.30;1.50;;;;;;;;;;4891858;29;20523;-88
2022/09/14 02:38:05;;;;;;;10.70;2.20;;;;;;;;;;4908155;29;20044;-88
2022/09/14 02:40:31;;;;;;;7.47;1.83;;;;;;;;;;4910697;29;20054;-88
2022/09/14 02:43:09;;;;;;;13.07;2.17;;;;;;;;;;4909017;29;20495;-88
2022/09/14 02:45:54;;;;;;;12.18;2.10;;;;;;;;;;4891532;29;20487;-88
2022/09/14 02:48:33;;;;;;;4.95;1.60;;;;;;;;;;4889709;29;20039;-88
2022/09/14 02:51:06;;;;;;;5.20;1.92;;;;;;;;;;4928137;28;20036;-88
2022/09/14 02:53:42;;;;;;;7.75;1.98;;;;;;;;;;4946686;28;20089;-88
2022/09/14 02:56:08;;;;;;;;;;;;;;;;;;4948149;28;20085;-88
2022/09/14 02:58:39;;;;;;;4.32;1.70;;;;;;;;;;4947227;28;19907;-88
2022/09/14 03:01:06;;;;;;;3.25;1.63;;;;;;;;;;4947850;28;20031;-88
2022/09/14 03:03:32;;;;;;;7.97;1.80;;;;;;;;;;4926563;28;20776;-88
2022/09/14 03:05:58;;;;;;;8.75;2.05;;;;;;;;;;4934945;29;20075;-88
2022/09/14 03:08:25;;;;;;;5.82;1.92;;;;;;;;;;4920723;29;20562;-88
2022/09/14 03:10:51;;;;;;;4.05;1.90;;;;;;;;;;4920693;29;20027;-88
2022/09/14 03:13:23;;;;;;;7.50;1.77;;;;;;;;;;4930955;29;20035;-87
2022/09/14 03:15:50;;;;;;;14.82;2.03;;;;;;;;;;4927793;29;20047;-88
2022/09/14 03:18:16;;;;;;;7.68;2.03;;;;;;;;;;4938281;29;20031;-88
2022/09/14 03:20:42;;;;;;;7.28;2.05;;;;;;;;;;4950879;28;20058;-88
2022/09/14 03:23:09;;;;;;;7.38;2.10;;;;;;;;;;4933872;28;20066;-88
2022/09/14 03:25:40;;;;;;;8.18;2.20;;;;;;;;;;4933366;29;20035;-88
2022/09/14 03:28:06;;;;;;;8.50;2.78;;;;;;;;;;4933304;29;20031;-88
2022/09/14 03:30:33;;;;;;;14.57;2.45;;;;;;;;;;4950068;28;20027;-88
2022/09/14 03:32:59;;;;;;;7.60;2.20;;;;;;;;;;4929894;29;20019;-88
2022/09/14 03:35:27;;;;;;;7.93;2.70;;;;;;;;;;4952202;28;20383;-88
2022/09/14 03:37:53;;;;;;;7.43;2.03;;;;;;;;;;4944474;28;20047;-88
2022/09/14 03:40:19;;;;;;;7.70;2.30;;;;;;;;;;4934322;28;20038;-89
2022/09/14 03:42:46;;;;;;;9.90;2.33;;;;;;;;;;4927228;29;20081;-88
2022/09/14 03:45:13;;;;;;;5.65;2.40;;;;;;;;;;4931080;28;20027;-88
2022/09/14 03:47:39;;;;;;;9.93;2.15;;;;;;;;;;4932472;29;20031;-88
2022/09/14 03:50:06;;;;;;;10.80;2.45;;;;;;;;;;4929071;28;20525;-88
2022/09/14 03:52:33;;;;;;;9.55;2.03;;;;;;;;;;4933521;28;20106;-88
2022/09/14 03:54:59;;;;;;;12.05;3.22;;;;;;;;;;4930593;29;20039;-88
2022/09/14 03:57:26;;;;;;;5.82;2.30;;;;;;;;;;4932335;29;20379;-88
2022/09/14 03:59:52;;;;;;;9.75;2.30;;;;;;;;;;4930095;29;20035;-88
2022/09/14 04:02:18;;;;;;;8.88;1.85;;;;;;;;;;4928300;29;20035;-88
2022/09/14 04:04:47;;;;;;;11.35;2.90;;;;;;;;;;4916347;29;20054;-88
2022/09/14 04:07:14;;;;;;;9.32;2.38;;;;;;;;;;4930946;29;20123;-88
2022/09/14 04:09:40;;;;;;;9.25;2.42;;;;;;;;;;4941101;28;20287;-88
2022/09/14 04:12:06;;;;;;;5.85;2.20;;;;;;;;;;4916692;29;20036;-88
2022/09/14 04:14:32;;;;;;;8.07;1.90;;;;;;;;;;4923456;28;20597;-88
2022/09/14 04:16:58;;;;;;;7.25;2.35;;;;;;;;;;4930832;28;20155;-88
2022/09/14 04:19:24;;;;;;;11.68;2.65;;;;;;;;;;4932434;29;20054;-88
2022/09/14 04:21:50;;;;;;;7.50;2.20;;;;;;;;;;4917291;29;20039;-88
2022/09/14 04:24:16;;;;;;;12.20;3.25;;;;;;;;;;4951189;28;20062;-88
2022/09/14 04:26:43;;;;;;;8.73;2.35;;;;;;;;;;4927257;29;20068;-88
2022/09/14 04:29:09;;;;;;;9.48;2.00;;;;;;;;;;4945627;28;20090;-88
2022/09/14 04:31:35;;;;;;;11.40;3.67;;;;;;;;;;4930706;29;20502;-87
2022/09/14 04:34:01;;;;;;;19.33;8.93;;;;;;;;;;4912139;28;20040;-88
2022/09/14 04:36:29;;;;;;;34.70;16.23;;;;;;;;;;4926524;29;20547;-87
2022/09/14 04:38:56;;;;;;;13.95;4.90;;;;;;;;;;4926004;29;20034;-87
2022/09/14 04:41:23;;;;;;;18.25;9.00;;;;;;;;;;4926964;28;20396;-88
2022/09/14 04:43:50;;;;;;;9.95;4.90;;;;;;;;;;4932960;29;20454;-88
2022/09/14 04:46:17;;;;;;;9.82;3.38;;;;;;;;;;4931472;29;20070;-88
2022/09/14 04:48:43;;;;;;;8.52;2.63;;;;;;;;;;4936436;29;20031;-88
2022/09/14 04:51:17;;;;;;;8.25;2.80;;;;;;;;;;4942099;28;20435;-88
2022/09/14 04:53:43;;;;;;;6.45;2.28;;;;;;;;;;4924317;28;20035;-88
2022/09/14 04:56:10;;;;;;;7.05;2.25;;;;;;;;;;4928932;28;20039;-88
2022/09/14 04:58:38;;;;;;;7.57;2.42;;;;;;;;;;4931789;29;20091;-87
2022/09/14 05:01:08;;;;;;;7.50;2.78;;;;;;;;;;4931326;29;20513;-87
2022/09/14 05:03:35;;;;;;;12.38;2.50;;;;;;;;;;4933871;29;20042;-88
2022/09/14 05:06:02;;;;;;;12.23;2.83;;;;;;;;;;4947284;28;20031;-88
2022/09/14 05:08:28;;;;;;;8.32;2.40;;;;;;;;;;4931592;29;20039;-88
2022/09/14 05:10:55;;;;;;;11.38;2.47;;;;;;;;;;4929282;29;20434;-89
2022/09/14 05:13:22;;;;;;;12.98;2.85;;;;;;;;;;4947181;28;20020;-88
2022/09/14 05:15:49;;;;;;;6.45;2.60;;;;;;;;;;4915854;29;20106;-88
2022/09/14 05:18:15;;;;;;;7.65;2.50;;;;;;;;;;4931299;28;20032;-88
2022/09/14 05:20:41;;;;;;;6.75;2.15;;;;;;;;;;4911638;29;20069;-88
2022/09/14 05:23:07;;;;;;;9.07;2.47;;;;;;;;;;4930959;28;20031;-88
2022/09/14 05:25:33;;;;;;;6.85;2.78;;;;;;;;;;4928589;29;20364;-88
2022/09/14 05:27:59;;;;;;;12.32;2.78;;;;;;;;;;4947898;28;20473;-88
2022/09/14 05:30:25;;;;;;;7.15;2.13;;;;;;;;;;4947610;28;20031;-89
2022/09/14 05:32:51;;;;;;;7.72;2.78;;;;;;;;;;4915776;28;20035;-88
2022/09/14 05:35:17;;;;;;;13.02;2.65;;;;;;;;;;4930523;29;20066;-89
2022/09/14 05:37:43;;;;;;;9.30;2.60;;;;;;;;;;4930288;28;20491;-88
2022/09/14 05:40:10;;;;;;;5.72;2.38;;;;;;;;;;4923355;28;20035;-88
2022/09/14 05:42:36;;;;;;;5.45;2.90;;;;;;;;;;4927811;28;20121;-88
2022/09/14 05:45:02;;;;;;;8.18;2.25;;;;;;;;;;4909154;28;20134;-88
2022/09/14 05:47:31;;;;;;;6.47;2.17;;;;;;;;;;4928153;28;20058;-88
2022/09/14 05:49:57;;;;;;;12.75;2.70;;;;;;;;;;4923482;28;20033;-89
2022/09/14 05:52:23;;;;;;;6.40;2.33;;;;;;;;;;4927391;28;20142;-89
2022/09/14 05:54:49;;;;;;;8.05;2.40;;;;;;;;;;4907751;28;20035;-88
2022/09/14 05:57:15;;;;;;;6.82;2.38;;;;;;;;;;4930973;28;20027;-88
2022/09/14 05:59:41;;;;;;;8.73;2.25;;;;;;;;;;4927192;28;20126;-89
2022/09/14 06:02:08;;;;;;;9.95;2.15;;;;;;;;;;4916100;28;20126;-89
2022/09/14 06:04:35;;;;;;;7.13;1.80;;;;;;;;;;4923291;29;20127;-87
2022/09/14 06:07:01;;;;;;;5.82;1.92;;;;;;;;;;4927946;28;20039;-88
2022/09/14 06:09:28;;;;;;;6.03;2.05;;;;;;;;;;4942178;28;20086;-88
2022/09/14 06:11:54;;;;;;;7.45;2.03;;;;;;;;;;4932059;28;20035;-88
2022/09/14 06:14:20;;;;;;;6.45;1.80;;;;;;;;;;4930689;29;20035;-88
2022/09/14 06:16:46;;;;;;;8.05;2.13;;;;;;;;;;4933164;29;20145;-88
2022/09/14 06:19:14;;;;;;;3.67;1.48;;;;;;;;;;4931438;29;20122;-88
2022/09/14 06:21:40;;;;;;;5.18;2.45;;;;;;;;;;4927912;28;20043;-87
2022/09/14 06:24:06;;;;;;;8.00;2.00;;;;;;;;;;4908485;28;20050;-87
2022/09/14 06:26:32;;;;;;;6.35;1.83;;;;;;;;;;4917577;28;20047;-88
2022/09/14 06:28:58;;;;;;;7.10;1.67;;;;;;;;;;4924175;29;20380;-87
2022/09/14 06:31:31;;;;;;;11.10;1.70;;;;;;;;;;4941779;28;20027;-87
2022/09/14 06:33:57;;;;;;;12.25;1.88;;;;;;;;;;4927766;28;20501;-87
2022/09/14 06:36:24;;;;;;;4.55;1.75;;;;;;;;;;4911459;28;20039;-87
2022/09/14 06:38:51;;;;;;;3.50;1.60;;;;;;;;;;4903440;28;20057;-87
2022/09/14 06:41:18;;;;;;;3.13;1.48;;;;;;;;;;4926510;28;20047;-87
2022/09/14 06:43:44;;;;;;;10.05;1.67;;;;;;;;;;4922067;28;20033;-88
2022/09/14 06:46:12;;;;;;;5.45;2.05;;;;;;;;;;4925102;28;20031;-87
2022/09/14 06:48:39;;;;;;;2.97;1.40;;;;;;;;;;4932534;28;20032;-87
2022/09/14 06:51:35;;;;;;;7.78;1.70;;;;;;;;;;4942927;28;20031;-87
2022/09/14 06:54:01;;;;;;;7.85;1.70;;;;;;;;;;4915164;28;20555;-87
2022/09/14 06:56:28;;;;;;;7.63;2.35;;;;;;;;;;4945025;28;20119;-87
2022/09/14 06:58:54;;;;;;;10.52;2.30;;;;;;;;;;4929208;29;20042;-87
2022/09/14 07:01:21;;;;;;;5.07;1.60;;;;;;;;;;4930363;29;20031;-87
2022/09/14 07:03:47;;;;;;;5.55;1.42;;;;;;;;;;4927033;29;20054;-87
2022/09/14 07:06:15;;;;;;;9.52;2.63;;;;;;;;;;4928700;29;20043;-87
2022/09/14 07:08:41;;;;;;;3.58;1.38;;;;;;;;;;4923498;29;20059;-87
2022/09/14 07:11:08;;;;;;;7.07;1.38;;;;;;;;;;4928004;29;20172;-87
2022/09/14 07:13:35;;;;;;;4.68;1.38;;;;;;;;;;4910377;29;20122;-87
2022/09/14 07:16:02;;;;;;;5.30;1.80;;;;;;;;;;4923541;29;20411;-87
2022/09/14 07:18:31;;;;;;;10.07;1.80;;;;;;;;;;4920165;29;20048;-87
2022/09/14 07:21:17;;;;;;;4.40;1.60;;;;;;;;;;4913981;29;20086;-87
2022/09/14 07:23:44;;;;;;;9.77;1.65;;;;;;;;;;4924007;29;20032;-87
2022/09/14 07:26:15;;;;;;;7.40;1.65;;;;;;;;;;4925221;29;20063;-87
2022/09/14 07:28:42;;;;;;;10.52;1.52;;;;;;;;;;4926812;29;20508;-88
2022/09/14 07:31:20;;;;;;;6.43;1.58;;;;;;;;;;4928981;29;20028;-87
2022/09/14 07:33:46;;;;;;;10.32;1.80;;;;;;;;;;4928320;29;20464;-87
2022/09/14 07:36:13;;;;;;;10.52;2.58;;;;;;;;;;4926402;29;20468;-87
2022/09/14 07:38:39;;;;;;;13.23;2.22;;;;;;;;;;4929820;29;20718;-87
2022/09/14 07:41:05;;;;;;;9.38;1.50;;;;;;;;;;4927590;29;20066;-87
2022/09/14 07:43:32;;;;;;;4.97;1.20;;;;;;;;;;4926474;29;20111;-86
2022/09/14 07:46:00;;;;;;;5.32;1.30;;;;;;;;;;4928253;29;20091;-87
2022/09/14 07:48:26;;;;;;;8.52;1.73;;;;;;;;;;4927797;29;20059;-86
2022/09/14 07:51:03;;;;;;;5.45;1.58;;;;;;;;;;4913154;29;20791;-87
2022/09/14 07:53:32;;;;;;;7.60;1.70;;;;;;;;;;4941984;28;20075;-87
2022/09/14 07:56:00;;;;;;;14.02;1.90;;;;;;;;;;4912300;29;20054;-87
2022/09/14 07:58:26;;;;;;;11.45;1.63;;;;;;;;;;4928320;29;20028;-87
2022/09/14 08:00:56;;;;;;;11.02;1.45;;;;;;;;;;4912035;29;20046;-87
2022/09/14 08:03:22;;;;;;;4.25;1.35;;;;;;;;;;4928981;29;20111;-87
2022/09/14 08:05:48;;;;;;;10.15;1.98;;;;;;;;;;4889527;29;20054;-87
2022/09/14 08:08:15;;;;;;;5.55;1.30;;;;;;;;;;4910759;29;20040;-87
2022/09/14 08:10:41;;;;;;;8.85;1.35;;;;;;;;;;4937427;28;20467;-87
2022/09/14 08:13:07;;;;;;;9.60;1.42;;;;;;;;;;4899386;29;20028;-87
2022/09/14 08:15:33;;;;;;;6.38;1.65;;;;;;;;;;4907539;29;20055;-87
2022/09/14 08:17:59;;;;;;;16.45;2.15;;;;;;;;;;4911791;29;20123;-88
2022/09/14 08:20:25;;;;;;;12.07;1.67;;;;;;;;;;4925836;29;20104;-87
2022/09/14 08:22:51;;;;;;;8.73;1.92;;;;;;;;;;4909269;29;20074;-88
2022/09/14 08:25:17;;;;;;;13.07;1.90;;;;;;;;;;4891777;29;20051;-88
2022/09/14 08:27:43;;;;;;;4.95;1.40;;;;;;;;;;4895168;29;20377;-88
2022/09/14 08:30:09;;;;;;;6.10;1.20;;;;;;;;;;4910624;29;20040;-88
2022/09/14 08:32:35;;;;;;;7.80;1.20;;;;;;;;;;4908362;29;20539;-88
2022/09/14 08:35:01;;;;;;;3.58;0.95;;;;;;;;;;4905451;29;20042;-88
2022/09/14 08:37:27;;;;;;;18.00;1.92;;;;;;;;;;4893617;29;20027;-88
2022/09/14 08:39:53;;;;;;;6.03;1.63;;;;;;;;;;4906434;29;20039;-88
2022/09/14 08:42:21;;;;;;;12.15;1.65;;;;;;;;;;4895229;29;20032;-87
2022/09/14 08:45:00;;;;;;;7.38;1.48;;;;;;;;;;4905801;29;20818;-88
2022/09/14 08:47:33;;;;;;;7.20;2.08;;;;;;;;;;4922968;29;20024;-88
2022/09/14 08:50:17;;;;;;;5.35;1.10;;;;;;;;;;4926130;29;20052;-88
2022/09/14 08:52:51;;;;;;;9.05;1.42;;;;;;;;;;4925293;28;20134;-88
2022/09/14 08:55:24;;;;;;;13.07;1.90;;;;;;;;;;4927624;29;20031;-88
2022/09/14 08:57:54;;;;;;;7.03;1.42;;;;;;;;;;4917266;29;20040;-88
2022/09/14 09:00:25;;;;;;;8.50;1.45;;;;;;;;;;4922290;29;20024;-88
2022/09/14 09:02:54;;;;;;;7.22;1.48;;;;;;;;;;4926642;28;20063;-88
2022/09/14 09:05:25;;;;;;;9.95;2.17;;;;;;;;;;4944012;28;20062;-88
2022/09/14 09:07:51;;;;;;;6.38;1.63;;;;;;;;;;4945027;28;20031;-88
2022/09/14 09:10:17;;;;;;;4.57;1.48;;;;;;;;;;4931166;28;20467;-88
2022/09/14 09:12:48;;;;;;;7.43;1.55;;;;;;;;;;4939531;28;20102;-88
2022/09/14 09:15:28;;;;;;;6.30;1.27;;;;;;;;;;4921719;28;20146;-88
2022/09/14 09:18:13;;;;;;;7.15;1.58;;;;;;;;;;4941819;28;20488;-88
2022/09/14 09:20:42;;;;;;;5.00;1.33;;;;;;;;;;4943303;28;20041;-88
2022/09/14 09:23:08;;;;;;;6.90;1.42;;;;;;;;;;4925301;29;20031;-88
2022/09/14 09:25:46;;;;;;;5.00;1.17;;;;;;;;;;4930462;29;20067;-88
2022/09/14 09:28:13;;;;;;;3.53;1.20;;;;;;;;;;4947331;28;20020;-88
2022/09/14 09:30:40;;;;;;;7.97;2.13;;;;;;;;;;4926463;29;20063;-88
2022/09/14 09:33:06;;;;;;;5.80;1.40;;;;;;;;;;4943436;28;20066;-88
2022/09/14 09:35:33;;;;;;;12.65;1.65;;;;;;;;;;4910269;29;20069;-88
2022/09/14 09:37:59;;;;;;;1.42;0.93;;;;;;;;;;4922924;29;20035;-88
2022/09/14 09:40:28;;;;;;;8.57;1.10;;;;;;;;;;4912037;29;20042;-88
2022/09/14 09:43:04;;;;;;;4.43;1.13;;;;;;;;;;4921752;29;20036;-87
2022/09/14 09:45:54;;;;;;;7.95;1.50;;;;;;;;;;4941136;28;20034;-88
2022/09/14 09:48:22;;;;;;;8.15;1.48;;;;;;;;;;4931999;28;20043;-87
2022/09/14 09:51:09;;;;;;;7.40;1.40;;;;;;;;;;4920531;28;20488;-88
2022/09/14 09:53:35;;;;;;;;;;;;;;;;;;4923724;28;20043;-88
2022/09/14 09:56:01;;;;;;;9.68;1.40;;;;;;;;;;4939989;28;19914;-87
2022/09/14 09:58:29;;;;;;;6.05;1.15;;;;;;;;;;4940760;28;20034;-88
2022/09/14 10:01:00;;;;;;;6.22;1.30;;;;;;;;;;4921217;29;20034;-87
2022/09/14 10:03:28;;;;;;;6.97;1.98;;;;;;;;;;4945001;28;20046;-88
2022/09/14 10:06:09;;;;;;;9.32;1.10;;;;;;;;;;4922480;29;20039;-89
2022/09/14 10:08:39;;;;;;;11.70;1.48;;;;;;;;;;4924495;28;20479;-88
2022/09/14 10:11:06;;;;;;;8.10;1.10;;;;;;;;;;4927677;28;20901;-88
2022/09/14 10:13:34;;;;;;;7.80;1.58;;;;;;;;;;4928890;28;20062;-87
2022/09/14 10:16:06;;;;;;;5.80;1.20;;;;;;;;;;4928591;28;20031;-88
2022/09/14 10:18:32;;;;;;;7.32;1.60;;;;;;;;;;4945820;28;20563;-88
2022/09/14 10:20:58;;;;;;;5.70;1.80;;;;;;;;;;4906458;29;20031;-88
2022/09/14 10:23:26;;;;;;;6.78;1.63;;;;;;;;;;4947018;28;20049;-88
2022/09/14 10:25:53;;;;;;;3.45;1.10;;;;;;;;;;4941171;28;20035;-88
2022/09/14 10:28:22;;;;;;;5.88;1.00;;;;;;;;;;4926075;28;20491;-88
2022/09/14 10:30:59;;;;;;;7.72;1.20;;;;;;;;;;4922408;28;20551;-87
2022/09/14 10:33:25;;;;;;;4.35;1.42;;;;;;;;;;4929826;29;20037;-88
2022/09/14 10:36:13;;;;;;;3.22;1.27;;;;;;;;;;4927175;28;20058;-88
2022/09/14 10:38:59;;;;;;;10.00;1.20;;;;;;;;;;4943800;28;20613;-86
2022/09/14 10:41:38;;;;;;;5.65;1.15;;;;;;;;;;4941610;28;20245;-87
2022/09/14 10:44:20;;;;;;;4.80;1.35;;;;;;;;;;4928280;28;20253;-87
2022/09/14 10:47:04;;;;;;;8.18;1.25;;;;;;;;;;4944234;28;20031;-87
2022/09/14 10:49:51;;;;;;;10.40;1.45;;;;;;;;;;4943481;28;20404;-87
2022/09/14 10:52:28;;;;;;;11.95;1.50;;;;;;;;;;4905603;28;20075;-88
2022/09/14 10:55:04;;;;;;;9.85;1.60;;;;;;;;;;4923311;29;20072;-87
2022/09/14 10:57:47;;;;;;;4.63;1.42;;;;;;;;;;4923222;28;20094;-87
2022/09/14 11:00:17;;;;;;;4.50;1.48;;;;;;;;;;4939022;28;20086;-88
2022/09/14 11:02:46;;;;;;;3.58;1.48;;;;;;;;;;4924316;29;20400;-88
2022/09/14 11:05:15;;;;;;;9.50;1.58;;;;;;;;;;4926807;28;20054;-88
2022/09/14 11:07:41;;;;;;;7.90;1.60;;;;;;;;;;4927705;29;20038;-88
2022/09/14 11:10:19;;;;;;;5.82;1.45;;;;;;;;;;4927180;28;20035;-88
2022/09/14 11:12:51;;;;;;;5.25;1.52;;;;;;;;;;4925879;28;20056;-88
2022/09/14 11:15:29;;;;;;;6.00;1.42;;;;;;;;;;4940037;28;20635;-88
2022/09/14 11:18:05;;;;;;;3.35;1.23;;;;;;;;;;4922928;28;20446;-88
2022/09/14 11:20:50;;;;;;;7.60;1.50;;;;;;;;;;4924751;29;20035;-88
2022/09/14 11:23:16;;;;;;;7.55;1.30;;;;;;;;;;4940594;28;20028;-88
2022/09/14 11:25:42;;;;;;;5.57;1.33;;;;;;;;;;4929689;28;20031;-88
2022/09/14 11:28:17;;;;;;;4.35;1.10;;;;;;;;;;4930538;29;20027;-88
2022/09/14 11:31:00;;;;;;;8.90;1.48;;;;;;;;;;4929726;28;20123;-88
2022/09/14 11:33:36;;;;;;;15.30;1.52;;;;;;;;;;4947833;28;20019;-88
2022/09/14 11:36:02;;;;;;;;;;;;;;;;;;4927268;29;20043;-88
2022/09/14 11:38:29;;;;;;;9.60;1.95;;;;;;;;;;4945592;28;20367;-87
2022/09/14 11:40:55;;;;;;;7.65;1.35;;;;;;;;;;4926106;28;20126;-88
2022/09/14 11:43:21;;;;;;;2.13;1.00;;;;;;;;;;4926727;29;20544;-88
2022/09/14 11:45:47;;;;;;;5.88;1.08;;;;;;;;;;4942349;28;20031;-86
2022/09/14 11:48:17;;;;;;;7.60;1.55;;;;;;;;;;4932767;29;20019;-88
2022/09/14 11:50:44;;;;;;;7.80;1.50;;;;;;;;;;4944909;28;20122;-88
2022/09/14 11:53:19;;;;;;;6.20;1.30;;;;;;;;;;4943406;28;20050;-87
2022/09/14 11:55:49;;;;;;;4.47;1.50;;;;;;;;;;4939904;28;20046;-88
2022/09/14 11:58:23;;;;;;;5.80;1.33;;;;;;;;;;4927215;28;20490;-87
2022/09/14 12:00:52;;;;;;;9.73;1.73;;;;;;;;;;4940587;28;20173;-88
2022/09/14 12:03:19;;;;;;;8.95;1.40;;;;;;;;;;4942921;28;20042;-87
2022/09/14 12:05:47;;;;;;;3.70;1.52;;;;;;;;;;4930042;29;20046;-88
2022/09/14 12:08:37;;;;;;;4.15;1.48;;;;;;;;;;4908552;29;20071;-87
2022/09/14 12:11:09;;;;;;;5.05;1.70;;;;;;;;;;4925419;28;20542;-88
2022/09/14 12:13:38;;;;;;;5.80;1.20;;;;;;;;;;4942862;28;20031;-87
2022/09/14 12:16:05;;;;;;;4.60;1.70;;;;;;;;;;4941209;28;20473;-87
2022/09/14 12:18:32;;;;;;;5.07;1.70;;;;;;;;;;4942592;28;20031;-87
2022/09/14 12:21:03;;;;;;;9.77;1.52;;;;;;;;;;4929705;29;20059;-87
2022/09/14 12:23:51;;;;;;;7.07;1.52;;;;;;;;;;4945541;28;20042;-87
2022/09/14 12:26:17;;;;;;;3.72;1.23;;;;;;;;;;4928686;28;20495;-87
2022/09/14 12:28:50;;;;;;;7.18;1.80;;;;;;;;;;4942539;28;20030;-88
2022/09/14 12:31:31;;;;;;;5.18;0.90;;;;;;;;;;4927560;29;20039;-88
2022/09/14 12:34:13;;;;;;;13.02;1.45;;;;;;;;;;4942166;28;20070;-87
2022/09/14 12:36:39;;;;;;;5.00;1.23;;;;;;;;;;4925403;28;20067;-87
2022/09/14 12:39:19;;;;;;;5.68;1.23;;;;;;;;;;4944035;28;20146;-87
2022/09/14 12:41:48;;;;;;;4.28;1.65;;;;;;;;;;4929871;29;20027;-87
2022/09/14 12:44:31;;;;;;;3.42;1.23;;;;;;;;;;4926037;29;20510;-88
2022/09/14 12:46:57;;;;;;;7.53;1.38;;;;;;;;;;4938451;28;20102;-88
2022/09/14 12:49:34;;;;;;;8.25;1.73;;;;;;;;;;4927722;28;20456;-88
2022/09/14 12:52:04;;;;;;;4.38;1.50;;;;;;;;;;4930775;29;20398;-88
2022/09/14 12:54:35;;;;;;;7.20;1.17;;;;;;;;;;4929530;28;20079;-88
2022/09/14 12:57:06;;;;;;;6.45;1.40;;;;;;;;;;4931229;29;20028;-88
2022/09/14 12:59:51;;;;;;;8.25;1.35;;;;;;;;;;4945917;28;20135;-88
2022/09/14 13:02:36;;;;;;;8.20;1.23;;;;;;;;;;4945853;28;20039;-88
2022/09/14 13:05:06;;;;;;;9.05;1.45;;;;;;;;;;4942224;28;20028;-88
2022/09/14 13:07:34;;;;;;;7.18;1.40;;;;;;;;;;4912629;28;20039;-88
2022/09/14 13:10:01;;;;;;;6.25;1.33;;;;;;;;;;4927312;28;20032;-88
2022/09/14 13:12:33;;;;;;;5.57;1.08;;;;;;;;;;4926863;28;20649;-88
2022/09/14 13:15:05;;;;;;;6.55;1.23;;;;;;;;;;4924291;28;20035;-88
2022/09/14 13:17:31;;;;;;;10.13;1.50;;;;;;;;;;4929655;29;20027;-88
2022/09/14 13:19:58;;;;;;;10.57;1.70;;;;;;;;;;4914346;28;20826;-88
2022/09/14 13:22:26;;;;;;;4.20;0.93;;;;;;;;;;4929772;29;20118;-88
2022/09/14 13:24:55;;;;;;;6.00;1.20;;;;;;;;;;4928614;28;20387;-88
2022/09/14 13:27:26;;;;;;;8.02;1.80;;;;;;;;;;4925773;29;20063;-88
2022/09/14 13:30:06;;;;;;;7.90;1.58;;;;;;;;;;4926719;28;20127;-88
2022/09/14 13:32:34;;;;;;;5.22;1.35;;;;;;;;;;4929861;29;20114;-88
2022/09/14 13:35:01;;;;;;;10.88;1.45;;;;;;;;;;4948233;28;20031;-88
2022/09/14 13:37:27;;;;;;;9.40;1.42;;;;;;;;;;4942417;28;20075;-88
2022/09/14 13:39:54;;;;;;;5.10;1.23;;;;;;;;;;4948747;28;20403;-88
2022/09/14 13:42:21;;;;;;;6.38;1.15;;;;;;;;;;4934109;29;20023;-89
2022/09/14 13:44:48;;;;;;;4.05;0.95;;;;;;;;;;4928630;29;20538;-88
2022/09/14 13:47:16;;;;;;;4.50;1.35;;;;;;;;;;4928259;28;20046;-89
2022/09/14 13:49:43;;;;;;;3.47;1.70;;;;;;;;;;4921704;29;20046;-89
2022/09/14 13:52:17;;;;;;;5.47;1.70;;;;;;;;;;4944593;28;20051;-89
2022/09/14 13:54:50;;;;;;;2.67;0.90;;;;;;;;;;4925632;28;20054;-89
2022/09/14 13:57:18;;;;;;;6.60;1.05;;;;;;;;;;4926058;29;20032;-88
2022/09/14 14:00:03;;;;;;;8.50;1.70;;;;;;;;;;4924544;29;20115;-88
2022/09/14 14:02:31;;;;;;;6.47;1.30;;;;;;;;;;4923207;29;20035;-88
2022/09/14 14:04:57;;;;;;;4.82;1.30;;;;;;;;;;4926477;29;20384;-89
2022/09/14 14:07:29;;;;;;;2.70;1.05;;;;;;;;;;4925760;29;20088;-89
2022/09/14 14:09:56;;;;;;;10.07;2.00;;;;;;;;;;4923483;29;20027;-88
2022/09/14 14:12:27;;;;;;;3.95;1.17;;;;;;;;;;4921695;29;20092;-89
2022/09/14 14:15:00;;;;;;;4.82;1.15;;;;;;;;;;4925648;29;20276;-89
2022/09/14 14:17:31;;;;;;;4.80;1.20;;;;;;;;;;4936643;28;20833;-89
2022/09/14 14:19:59;;;;;;;3.15;1.08;;;;;;;;;;4940505;28;20042;-88
2022/09/14 14:22:28;;;;;;;4.07;1.23;;;;;;;;;;4918200;29;20047;-88
2022/09/14 14:24:55;;;;;;;3.55;1.10;;;;;;;;;;4922408;29;20024;-88
2022/09/14 14:27:29;;;;;;;3.60;1.20;;;;;;;;;;4923430;29;20415;-88
2022/09/14 14:29:55;;;;;;;5.43;1.35;;;;;;;;;;4922725;29;20260;-88
2022/09/14 14:32:21;;;;;;;4.13;1.08;;;;;;;;;;4923767;29;20038;-88
2022/09/14 14:34:47;;;;;;;11.23;0.98;;;;;;;;;;4927603;29;20065;-88
2022/09/14 14:37:14;;;;;;;7.15;1.00;;;;;;;;;;4926098;29;20492;-87
2022/09/14 14:39:40;;;;;;;4.57;1.30;;;;;;;;;;4926155;29;20111;-88
2022/09/14 14:42:06;;;;;;;3.30;1.25;;;;;;;;;;4925537;29;20522;-88
2022/09/14 14:44:33;;;;;;;4.43;1.67;;;;;;;;;;4927004;29;20035;-88
2022/09/14 14:46:59;;;;;;;2.42;0.95;;;;;;;;;;4922834;29;20040;-89
2022/09/14 14:49:25;;;;;;;4.53;1.27;;;;;;;;;;4922179;29;20032;-88
2022/09/14 14:51:52;;;;;;;2.15;1.02;;;;;;;;;;4926700;29;20031;-88
2022/09/14 14:54:26;;;;;;;7.00;1.50;;;;;;;;;;4922299;28;20036;-88
2022/09/14 14:57:00;;;;;;;5.80;1.10;;;;;;;;;;4908005;29;20040;-88
2022/09/14 14:59:28;;;;;;;5.82;1.88;;;;;;;;;;4877152;29;20731;-88